Terminal Aerodrome Forecast
Issued by NWS Cleveland, OH

Home | Current Version | Previous Version | Text Only | Print | Product List | Glossary On
Versions: 1 2 3 4 5 6 7 8 9 10 11 12 13 14 15
000
FTUS41 KCLE 220500
TAFTOL
TAF
KTOL 220539Z 2206/2306 VRB03KT P6SM SKC
      TEMPO 2210/2213 5SM BR
     FM221500 22008KT P6SM SCT050
     FM222300 22006KT P6SM BKN250=

USA.gov is the U.S. government's official web portal to all federal, state and local government web resources and services.